sensor_id;sensor_type;location;lat;lon;timestamp;P1;durP1;ratioP1;P2;durP2;ratioP2
13185;SDS011;6658;53.080;7.428;2022-11-25T00:03:32;15.90;;;4.50;;
13185;SDS011;6658;53.080;7.428;2022-11-25T00:08:38;15.87;;;4.90;;
13185;SDS011;6658;53.080;7.428;2022-11-25T00:11:05;9.23;;;4.80;;
13185;SDS011;6658;53.080;7.428;2022-11-25T00:13:31;12.00;;;4.10;;
13185;SDS011;6658;53.080;7.428;2022-11-25T00:16:04;9.63;;;4.17;;
13185;SDS011;6658;53.080;7.428;2022-11-25T00:18:32;13.77;;;4.30;;
13185;SDS011;6658;53.080;7.428;2022-11-25T00:20:58;11.60;;;3.83;;
13185;SDS011;6658;53.080;7.428;2022-11-25T00:23:28;19.23;;;5.00;;
13185;SDS011;6658;53.080;7.428;2022-11-25T00:25:54;10.87;;;4.00;;
13185;SDS011;6658;53.080;7.428;2022-11-25T00:28:20;15.67;;;3.57;;
13185;SDS011;6658;53.080;7.428;2022-11-25T00:30:45;10.23;;;3.83;;
13185;SDS011;6658;53.080;7.428;2022-11-25T00:33:11;10.53;;;3.73;;
13185;SDS011;6658;53.080;7.428;2022-11-25T00:35:37;11.90;;;3.63;;
13185;SDS011;6658;53.080;7.428;2022-11-25T00:38:02;12.10;;;3.40;;
13185;SDS011;6658;53.080;7.428;2022-11-25T00:40:28;9.50;;;3.77;;
13185;SDS011;6658;53.080;7.428;2022-11-25T00:42:54;9.13;;;3.30;;
13185;SDS011;6658;53.080;7.428;2022-11-25T00:45:38;8.97;;;3.33;;
13185;SDS011;6658;53.080;7.428;2022-11-25T00:48:03;8.10;;;2.80;;
13185;SDS011;6658;53.080;7.428;2022-11-25T00:50:29;10.80;;;3.33;;
13185;SDS011;6658;53.080;7.428;2022-11-25T00:52:55;11.30;;;4.43;;
13185;SDS011;6658;53.080;7.428;2022-11-25T00:55:20;9.50;;;3.37;;
13185;SDS011;6658;53.080;7.428;2022-11-25T00:57:46;9.03;;;3.20;;
13185;SDS011;6658;53.080;7.428;2022-11-25T01:00:12;7.47;;;3.00;;
13185;SDS011;6658;53.080;7.428;2022-11-25T01:02:38;8.90;;;2.50;;
13185;SDS011;6658;53.080;7.428;2022-11-25T01:05:03;5.90;;;2.63;;
13185;SDS011;6658;53.080;7.428;2022-11-25T01:07:29;8.13;;;2.33;;
13185;SDS011;6658;53.080;7.428;2022-11-25T01:09:55;5.73;;;2.47;;
13185;SDS011;6658;53.080;7.428;2022-11-25T01:12:21;5.63;;;3.17;;
13185;SDS011;6658;53.080;7.428;2022-11-25T01:14:46;5.27;;;1.97;;
13185;SDS011;6658;53.080;7.428;2022-11-25T01:17:12;6.30;;;2.57;;
13185;SDS011;6658;53.080;7.428;2022-11-25T01:19:38;9.23;;;3.00;;
13185;SDS011;6658;53.080;7.428;2022-11-25T01:22:05;4.53;;;2.10;;
13185;SDS011;6658;53.080;7.428;2022-11-25T01:24:31;10.73;;;3.87;;
13185;SDS011;6658;53.080;7.428;2022-11-25T01:26:57;6.10;;;2.73;;
13185;SDS011;6658;53.080;7.428;2022-11-25T01:29:23;7.13;;;2.03;;
13185;SDS011;6658;53.080;7.428;2022-11-25T01:31:49;6.23;;;2.40;;
13185;SDS011;6658;53.080;7.428;2022-11-25T01:34:16;7.13;;;1.97;;
13185;SDS011;6658;53.080;7.428;2022-11-25T01:36:44;5.93;;;2.00;;
13185;SDS011;6658;53.080;7.428;2022-11-25T01:39:12;10.53;;;2.53;;
13185;SDS011;6658;53.080;7.428;2022-11-25T01:41:45;8.57;;;2.30;;
13185;SDS011;6658;53.080;7.428;2022-11-25T01:44:13;7.23;;;2.30;;
13185;SDS011;6658;53.080;7.428;2022-11-25T01:49:49;7.37;;;2.70;;
13185;SDS011;6658;53.080;7.428;2022-11-25T01:52:28;7.17;;;2.00;;
13185;SDS011;6658;53.080;7.428;2022-11-25T01:55:01;5.40;;;1.97;;
13185;SDS011;6658;53.080;7.428;2022-11-25T02:00:10;8.60;;;2.17;;
13185;SDS011;6658;53.080;7.428;2022-11-25T02:02:36;7.77;;;2.00;;
13185;SDS011;6658;53.080;7.428;2022-11-25T02:05:03;5.73;;;2.03;;
13185;SDS011;6658;53.080;7.428;2022-11-25T02:07:34;5.73;;;2.03;;
13185;SDS011;6658;53.080;7.428;2022-11-25T02:10:06;7.73;;;2.30;;
13185;SDS011;6658;53.080;7.428;2022-11-25T02:12:35;7.37;;;2.30;;
13185;SDS011;6658;53.080;7.428;2022-11-25T02:15:03;5.80;;;2.30;;
13185;SDS011;6658;53.080;7.428;2022-11-25T02:17:30;5.17;;;2.10;;
13185;SDS011;6658;53.080;7.428;2022-11-25T02:20:04;6.60;;;1.90;;
13185;SDS011;6658;53.080;7.428;2022-11-25T02:22:40;7.87;;;1.90;;
13185;SDS011;6658;53.080;7.428;2022-11-25T02:25:33;3.53;;;1.83;;
13185;SDS011;6658;53.080;7.428;2022-11-25T02:28:04;5.40;;;2.30;;
13185;SDS011;6658;53.080;7.428;2022-11-25T02:30:32;8.47;;;2.17;;
13185;SDS011;6658;53.080;7.428;2022-11-25T02:32:59;5.23;;;1.73;;
13185;SDS011;6658;53.080;7.428;2022-11-25T02:35:27;6.17;;;2.17;;
13185;SDS011;6658;53.080;7.428;2022-11-25T02:38:04;11.13;;;2.53;;
13185;SDS011;6658;53.080;7.428;2022-11-25T02:40:56;6.50;;;2.27;;
13185;SDS011;6658;53.080;7.428;2022-11-25T02:43:27;7.07;;;2.50;;
13185;SDS011;6658;53.080;7.428;2022-11-25T02:48:25;7.33;;;2.43;;
13185;SDS011;6658;53.080;7.428;2022-11-25T02:50:53;7.93;;;2.60;;
13185;SDS011;6658;53.080;7.428;2022-11-25T02:53:19;7.67;;;2.77;;
13185;SDS011;6658;53.080;7.428;2022-11-25T02:55:45;9.83;;;3.27;;
13185;SDS011;6658;53.080;7.428;2022-11-25T02:58:11;3.23;;;1.83;;
13185;SDS011;6658;53.080;7.428;2022-11-25T03:00:37;6.67;;;2.60;;
13185;SDS011;6658;53.080;7.428;2022-11-25T03:03:04;7.03;;;2.00;;
13185;SDS011;6658;53.080;7.428;2022-11-25T03:05:30;8.23;;;2.27;;
13185;SDS011;6658;53.080;7.428;2022-11-25T03:07:56;7.20;;;2.33;;
13185;SDS011;6658;53.080;7.428;2022-11-25T03:10:21;5.60;;;2.10;;
13185;SDS011;6658;53.080;7.428;2022-11-25T03:12:47;8.10;;;2.13;;
13185;SDS011;6658;53.080;7.428;2022-11-25T03:15:13;7.07;;;2.67;;
13185;SDS011;6658;53.080;7.428;2022-11-25T03:17:39;5.63;;;2.10;;
13185;SDS011;6658;53.080;7.428;2022-11-25T03:20:07;8.17;;;2.40;;
13185;SDS011;6658;53.080;7.428;2022-11-25T03:22:34;7.30;;;2.07;;
13185;SDS011;6658;53.080;7.428;2022-11-25T03:25:00;7.37;;;3.10;;
13185;SDS011;6658;53.080;7.428;2022-11-25T03:27:26;8.00;;;2.20;;
13185;SDS011;6658;53.080;7.428;2022-11-25T03:29:51;7.03;;;2.50;;
13185;SDS011;6658;53.080;7.428;2022-11-25T03:32:17;5.30;;;2.00;;
13185;SDS011;6658;53.080;7.428;2022-11-25T03:34:43;7.97;;;2.33;;
13185;SDS011;6658;53.080;7.428;2022-11-25T03:37:08;5.00;;;2.23;;
13185;SDS011;6658;53.080;7.428;2022-11-25T03:39:34;7.87;;;2.60;;
13185;SDS011;6658;53.080;7.428;2022-11-25T03:42:00;8.13;;;2.60;;
13185;SDS011;6658;53.080;7.428;2022-11-25T03:44:26;5.90;;;2.20;;
13185;SDS011;6658;53.080;7.428;2022-11-25T03:46:51;5.63;;;2.63;;
13185;SDS011;6658;53.080;7.428;2022-11-25T03:49:17;5.67;;;2.30;;
13185;SDS011;6658;53.080;7.428;2022-11-25T03:51:43;5.50;;;2.43;;
13185;SDS011;6658;53.080;7.428;2022-11-25T03:54:09;6.43;;;1.70;;
13185;SDS011;6658;53.080;7.428;2022-11-25T03:56:34;4.83;;;2.20;;
13185;SDS011;6658;53.080;7.428;2022-11-25T03:59:00;5.63;;;2.40;;
13185;SDS011;6658;53.080;7.428;2022-11-25T04:01:26;5.57;;;2.60;;
13185;SDS011;6658;53.080;7.428;2022-11-25T04:03:51;4.83;;;2.10;;
13185;SDS011;6658;53.080;7.428;2022-11-25T04:06:17;7.30;;;2.60;;
13185;SDS011;6658;53.080;7.428;2022-11-25T04:08:45;12.13;;;2.67;;
13185;SDS011;6658;53.080;7.428;2022-11-25T04:11:11;7.73;;;2.50;;
13185;SDS011;6658;53.080;7.428;2022-11-25T04:13:37;6.17;;;1.97;;
13185;SDS011;6658;53.080;7.428;2022-11-25T04:16:02;6.93;;;1.97;;
13185;SDS011;6658;53.080;7.428;2022-11-25T04:18:28;5.87;;;2.10;;
13185;SDS011;6658;53.080;7.428;2022-11-25T04:20:54;6.37;;;2.83;;
13185;SDS011;6658;53.080;7.428;2022-11-25T04:23:19;8.33;;;2.27;;
13185;SDS011;6658;53.080;7.428;2022-11-25T04:25:47;9.57;;;2.57;;
13185;SDS011;6658;53.080;7.428;2022-11-25T04:28:14;5.83;;;2.17;;
13185;SDS011;6658;53.080;7.428;2022-11-25T04:30:41;7.13;;;2.37;;
13185;SDS011;6658;53.080;7.428;2022-11-25T04:33:07;5.67;;;2.47;;
13185;SDS011;6658;53.080;7.428;2022-11-25T04:35:32;4.40;;;2.10;;
13185;SDS011;6658;53.080;7.428;2022-11-25T04:37:58;6.07;;;2.27;;
13185;SDS011;6658;53.080;7.428;2022-11-25T04:40:24;8.57;;;2.83;;
13185;SDS011;6658;53.080;7.428;2022-11-25T04:42:49;8.27;;;2.43;;
13185;SDS011;6658;53.080;7.428;2022-11-25T04:45:16;7.30;;;2.63;;
13185;SDS011;6658;53.080;7.428;2022-11-25T04:47:42;8.13;;;3.67;;
13185;SDS011;6658;53.080;7.428;2022-11-25T04:50:12;9.70;;;2.83;;
13185;SDS011;6658;53.080;7.428;2022-11-25T04:52:42;5.87;;;1.90;;
13185;SDS011;6658;53.080;7.428;2022-11-25T04:55:09;7.00;;;2.90;;
13185;SDS011;6658;53.080;7.428;2022-11-25T04:57:35;5.37;;;2.00;;
13185;SDS011;6658;53.080;7.428;2022-11-25T05:00:01;7.20;;;2.00;;
13185;SDS011;6658;53.080;7.428;2022-11-25T05:02:27;5.53;;;2.90;;
13185;SDS011;6658;53.080;7.428;2022-11-25T05:04:54;7.97;;;2.90;;
13185;SDS011;6658;53.080;7.428;2022-11-25T05:07:21;4.93;;;2.27;;
13185;SDS011;6658;53.080;7.428;2022-11-25T05:09:49;5.43;;;2.47;;
13185;SDS011;6658;53.080;7.428;2022-11-25T05:12:16;6.33;;;2.23;;
13185;SDS011;6658;53.080;7.428;2022-11-25T05:14:47;7.97;;;2.13;;
13185;SDS011;6658;53.080;7.428;2022-11-25T05:17:14;8.33;;;3.40;;
13185;SDS011;6658;53.080;7.428;2022-11-25T05:19:41;6.47;;;2.00;;
13185;SDS011;6658;53.080;7.428;2022-11-25T05:22:15;8.63;;;2.83;;
13185;SDS011;6658;53.080;7.428;2022-11-25T05:24:42;8.40;;;2.97;;
13185;SDS011;6658;53.080;7.428;2022-11-25T05:27:09;7.40;;;2.37;;
13185;SDS011;6658;53.080;7.428;2022-11-25T05:29:35;9.03;;;2.80;;
13185;SDS011;6658;53.080;7.428;2022-11-25T05:32:02;10.83;;;3.07;;
13185;SDS011;6658;53.080;7.428;2022-11-25T05:34:28;8.73;;;2.57;;
13185;SDS011;6658;53.080;7.428;2022-11-25T05:36:54;6.07;;;2.47;;
13185;SDS011;6658;53.080;7.428;2022-11-25T05:39:20;7.37;;;2.00;;
13185;SDS011;6658;53.080;7.428;2022-11-25T05:41:45;7.77;;;2.77;;
13185;SDS011;6658;53.080;7.428;2022-11-25T05:44:11;7.87;;;2.60;;
13185;SDS011;6658;53.080;7.428;2022-11-25T05:46:37;6.80;;;2.50;;
13185;SDS011;6658;53.080;7.428;2022-11-25T05:49:02;10.70;;;2.67;;
13185;SDS011;6658;53.080;7.428;2022-11-25T05:51:28;9.83;;;3.23;;
13185;SDS011;6658;53.080;7.428;2022-11-25T05:53:55;7.17;;;2.33;;
13185;SDS011;6658;53.080;7.428;2022-11-25T05:56:21;6.10;;;2.97;;
13185;SDS011;6658;53.080;7.428;2022-11-25T05:58:47;5.80;;;2.60;;
13185;SDS011;6658;53.080;7.428;2022-11-25T06:01:13;12.13;;;3.00;;
13185;SDS011;6658;53.080;7.428;2022-11-25T06:03:40;6.57;;;2.50;;
13185;SDS011;6658;53.080;7.428;2022-11-25T06:06:07;9.50;;;2.77;;
13185;SDS011;6658;53.080;7.428;2022-11-25T06:08:34;8.07;;;2.57;;
13185;SDS011;6658;53.080;7.428;2022-11-25T06:11:08;11.57;;;2.87;;
13185;SDS011;6658;53.080;7.428;2022-11-25T06:13:37;6.13;;;2.53;;
13185;SDS011;6658;53.080;7.428;2022-11-25T06:16:09;8.70;;;2.93;;
13185;SDS011;6658;53.080;7.428;2022-11-25T06:18:37;10.20;;;2.60;;
13185;SDS011;6658;53.080;7.428;2022-11-25T06:21:04;8.10;;;3.07;;
13185;SDS011;6658;53.080;7.428;2022-11-25T06:23:31;6.63;;;2.73;;
13185;SDS011;6658;53.080;7.428;2022-11-25T06:26:07;8.43;;;4.83;;
13185;SDS011;6658;53.080;7.428;2022-11-25T06:28:36;7.77;;;2.97;;
13185;SDS011;6658;53.080;7.428;2022-11-25T06:31:03;7.70;;;2.70;;
13185;SDS011;6658;53.080;7.428;2022-11-25T06:33:33;7.63;;;2.77;;
13185;SDS011;6658;53.080;7.428;2022-11-25T06:36:01;11.30;;;2.93;;
13185;SDS011;6658;53.080;7.428;2022-11-25T06:38:28;7.00;;;3.27;;
13185;SDS011;6658;53.080;7.428;2022-11-25T06:40:57;9.60;;;3.67;;
13185;SDS011;6658;53.080;7.428;2022-11-25T06:43:28;9.40;;;3.47;;
13185;SDS011;6658;53.080;7.428;2022-11-25T06:45:54;8.77;;;3.63;;
13185;SDS011;6658;53.080;7.428;2022-11-25T06:48:24;9.17;;;3.50;;
13185;SDS011;6658;53.080;7.428;2022-11-25T06:50:55;7.93;;;3.53;;
13185;SDS011;6658;53.080;7.428;2022-11-25T06:53:22;7.77;;;3.57;;
13185;SDS011;6658;53.080;7.428;2022-11-25T06:55:48;8.73;;;3.80;;
13185;SDS011;6658;53.080;7.428;2022-11-25T06:58:14;6.13;;;3.70;;
13185;SDS011;6658;53.080;7.428;2022-11-25T07:00:39;8.10;;;3.63;;
13185;SDS011;6658;53.080;7.428;2022-11-25T07:03:05;9.73;;;3.73;;
13185;SDS011;6658;53.080;7.428;2022-11-25T07:05:31;9.27;;;3.67;;
13185;SDS011;6658;53.080;7.428;2022-11-25T07:07:56;14.87;;;4.20;;
13185;SDS011;6658;53.080;7.428;2022-11-25T07:10:22;7.63;;;4.17;;
13185;SDS011;6658;53.080;7.428;2022-11-25T07:12:48;10.20;;;4.10;;
13185;SDS011;6658;53.080;7.428;2022-11-25T07:15:13;9.13;;;4.13;;
13185;SDS011;6658;53.080;7.428;2022-11-25T07:17:39;12.33;;;4.20;;
13185;SDS011;6658;53.080;7.428;2022-11-25T07:20:05;9.70;;;3.73;;
13185;SDS011;6658;53.080;7.428;2022-11-25T07:22:31;10.83;;;4.17;;
13185;SDS011;6658;53.080;7.428;2022-11-25T07:24:58;7.83;;;4.10;;
13185;SDS011;6658;53.080;7.428;2022-11-25T07:27:23;11.93;;;5.53;;
13185;SDS011;6658;53.080;7.428;2022-11-25T07:29:49;10.87;;;5.30;;
13185;SDS011;6658;53.080;7.428;2022-11-25T07:32:15;12.37;;;4.90;;
13185;SDS011;6658;53.080;7.428;2022-11-25T07:34:40;7.43;;;4.30;;
13185;SDS011;6658;53.080;7.428;2022-11-25T07:37:06;10.53;;;4.90;;
13185;SDS011;6658;53.080;7.428;2022-11-25T07:39:32;7.00;;;4.50;;
13185;SDS011;6658;53.080;7.428;2022-11-25T07:41:58;11.03;;;4.63;;
13185;SDS011;6658;53.080;7.428;2022-11-25T07:44:23;14.53;;;5.53;;
13185;SDS011;6658;53.080;7.428;2022-11-25T07:46:49;50.20;;;18.70;;
13185;SDS011;6658;53.080;7.428;2022-11-25T07:49:16;17.03;;;9.23;;
13185;SDS011;6658;53.080;7.428;2022-11-25T07:51:48;10.03;;;5.37;;
13185;SDS011;6658;53.080;7.428;2022-11-25T07:54:14;11.30;;;4.80;;
13185;SDS011;6658;53.080;7.428;2022-11-25T07:56:41;8.97;;;5.70;;
13185;SDS011;6658;53.080;7.428;2022-11-25T07:59:10;15.63;;;5.20;;
13185;SDS011;6658;53.080;7.428;2022-11-25T08:01:38;10.03;;;4.40;;
13185;SDS011;6658;53.080;7.428;2022-11-25T08:04:05;16.97;;;9.60;;
13185;SDS011;6658;53.080;7.428;2022-11-25T08:06:35;8.57;;;5.40;;
13185;SDS011;6658;53.080;7.428;2022-11-25T08:09:07;11.77;;;6.67;;
13185;SDS011;6658;53.080;7.428;2022-11-25T08:11:34;8.80;;;4.93;;
13185;SDS011;6658;53.080;7.428;2022-11-25T08:14:00;10.33;;;6.33;;
13185;SDS011;6658;53.080;7.428;2022-11-25T08:16:27;8.83;;;5.13;;
13185;SDS011;6658;53.080;7.428;2022-11-25T08:18:55;12.40;;;5.80;;
13185;SDS011;6658;53.080;7.428;2022-11-25T08:21:22;7.50;;;5.17;;
13185;SDS011;6658;53.080;7.428;2022-11-25T08:23:48;12.10;;;5.50;;
13185;SDS011;6658;53.080;7.428;2022-11-25T08:26:26;8.90;;;4.37;;
13185;SDS011;6658;53.080;7.428;2022-11-25T08:28:58;12.30;;;6.13;;
13185;SDS011;6658;53.080;7.428;2022-11-25T08:31:26;10.57;;;6.60;;
13185;SDS011;6658;53.080;7.428;2022-11-25T08:33:57;10.50;;;9.40;;
13185;SDS011;6658;53.080;7.428;2022-11-25T08:36:23;12.43;;;6.30;;
13185;SDS011;6658;53.080;7.428;2022-11-25T08:38:51;9.97;;;5.70;;
13185;SDS011;6658;53.080;7.428;2022-11-25T08:41:20;8.53;;;4.87;;
13185;SDS011;6658;53.080;7.428;2022-11-25T08:43:52;8.70;;;4.70;;
13185;SDS011;6658;53.080;7.428;2022-11-25T08:46:22;8.83;;;5.00;;
13185;SDS011;6658;53.080;7.428;2022-11-25T08:48:50;8.90;;;4.47;;
13185;SDS011;6658;53.080;7.428;2022-11-25T08:51:17;12.03;;;5.40;;
13185;SDS011;6658;53.080;7.428;2022-11-25T08:53:45;7.10;;;4.07;;
13185;SDS011;6658;53.080;7.428;2022-11-25T08:56:15;10.07;;;6.03;;
13185;SDS011;6658;53.080;7.428;2022-11-25T08:58:41;8.40;;;5.17;;
13185;SDS011;6658;53.080;7.428;2022-11-25T09:01:08;9.07;;;4.90;;
13185;SDS011;6658;53.080;7.428;2022-11-25T09:03:36;9.37;;;4.33;;
13185;SDS011;6658;53.080;7.428;2022-11-25T09:06:06;8.47;;;4.50;;
13185;SDS011;6658;53.080;7.428;2022-11-25T09:08:33;7.43;;;4.37;;
13185;SDS011;6658;53.080;7.428;2022-11-25T09:10:59;7.47;;;4.90;;
13185;SDS011;6658;53.080;7.428;2022-11-25T09:13:25;16.87;;;5.93;;
13185;SDS011;6658;53.080;7.428;2022-11-25T09:15:51;10.50;;;6.47;;
13185;SDS011;6658;53.080;7.428;2022-11-25T09:18:16;8.10;;;4.70;;
13185;SDS011;6658;53.080;7.428;2022-11-25T09:20:44;12.90;;;5.97;;
13185;SDS011;6658;53.080;7.428;2022-11-25T09:23:11;6.13;;;4.83;;
13185;SDS011;6658;53.080;7.428;2022-11-25T09:25:37;9.43;;;4.53;;
13185;SDS011;6658;53.080;7.428;2022-11-25T09:28:02;7.67;;;4.30;;
13185;SDS011;6658;53.080;7.428;2022-11-25T09:30:28;10.07;;;5.37;;
13185;SDS011;6658;53.080;7.428;2022-11-25T09:32:55;11.23;;;5.10;;
13185;SDS011;6658;53.080;7.428;2022-11-25T09:35:21;8.63;;;4.30;;
13185;SDS011;6658;53.080;7.428;2022-11-25T09:37:48;11.50;;;6.73;;
13185;SDS011;6658;53.080;7.428;2022-11-25T09:40:32;8.87;;;5.63;;
13185;SDS011;6658;53.080;7.428;2022-11-25T09:43:19;5.40;;;4.03;;
13185;SDS011;6658;53.080;7.428;2022-11-25T09:49:28;8.20;;;4.00;;
13185;SDS011;6658;53.080;7.428;2022-11-25T09:55:23;8.70;;;4.87;;
13185;SDS011;6658;53.080;7.428;2022-11-25T09:58:52;6.80;;;3.53;;
13185;SDS011;6658;53.080;7.428;2022-11-25T10:00:54;7.60;;;4.27;;
13185;SDS011;6658;53.080;7.428;2022-11-25T10:03:35;9.33;;;4.60;;
13185;SDS011;6658;53.080;7.428;2022-11-25T10:09:13;7.50;;;4.70;;
13185;SDS011;6658;53.080;7.428;2022-11-25T10:11:55;10.27;;;4.93;;
13185;SDS011;6658;53.080;7.428;2022-11-25T10:17:50;6.20;;;4.57;;
13185;SDS011;6658;53.080;7.428;2022-11-25T10:20:24;7.50;;;5.10;;
13185;SDS011;6658;53.080;7.428;2022-11-25T10:22:54;5.93;;;4.07;;
13185;SDS011;6658;53.080;7.428;2022-11-25T10:25:24;7.60;;;4.83;;
13185;SDS011;6658;53.080;7.428;2022-11-25T10:27:55;6.63;;;4.50;;
13185;SDS011;6658;53.080;7.428;2022-11-25T10:30:48;5.43;;;4.43;;
13185;SDS011;6658;53.080;7.428;2022-11-25T10:36:05;6.53;;;3.97;;
13185;SDS011;6658;53.080;7.428;2022-11-25T10:41:43;6.43;;;4.00;;
13185;SDS011;6658;53.080;7.428;2022-11-25T10:44:18;7.50;;;3.97;;
13185;SDS011;6658;53.080;7.428;2022-11-25T10:55:24;8.57;;;4.27;;
13185;SDS011;6658;53.080;7.428;2022-11-25T10:57:52;9.30;;;4.43;;
13185;SDS011;6658;53.080;7.428;2022-11-25T11:02:56;5.27;;;3.53;;
13185;SDS011;6658;53.080;7.428;2022-11-25T11:05:24;8.60;;;3.33;;
13185;SDS011;6658;53.080;7.428;2022-11-25T11:08:07;10.13;;;3.97;;
13185;SDS011;6658;53.080;7.428;2022-11-25T11:10:36;5.70;;;3.23;;
13185;SDS011;6658;53.080;7.428;2022-11-25T11:13:03;6.07;;;4.00;;
13185;SDS011;6658;53.080;7.428;2022-11-25T11:18:39;6.03;;;3.10;;
13185;SDS011;6658;53.080;7.428;2022-11-25T11:21:04;4.50;;;3.03;;
13185;SDS011;6658;53.080;7.428;2022-11-25T11:23:31;5.67;;;3.40;;
13185;SDS011;6658;53.080;7.428;2022-11-25T11:26:24;5.10;;;3.20;;
13185;SDS011;6658;53.080;7.428;2022-11-25T11:28:57;5.60;;;3.57;;
13185;SDS011;6658;53.080;7.428;2022-11-25T11:31:27;5.70;;;3.23;;
13185;SDS011;6658;53.080;7.428;2022-11-25T11:48:32;3.17;;;2.53;;
13185;SDS011;6658;53.080;7.428;2022-11-25T11:57:19;5.30;;;2.83;;
13185;SDS011;6658;53.080;7.428;2022-11-25T12:00:12;8.00;;;2.67;;
13185;SDS011;6658;53.080;7.428;2022-11-25T12:03:03;4.67;;;2.10;;
13185;SDS011;6658;53.080;7.428;2022-11-25T12:05:38;5.53;;;2.70;;
13185;SDS011;6658;53.080;7.428;2022-11-25T12:08:12;7.07;;;2.17;;
13185;SDS011;6658;53.080;7.428;2022-11-25T12:11:17;8.77;;;2.77;;
13185;SDS011;6658;53.080;7.428;2022-11-25T12:13:52;3.37;;;2.37;;
13185;SDS011;6658;53.080;7.428;2022-11-25T12:16:39;4.57;;;2.20;;
13185;SDS011;6658;53.080;7.428;2022-11-25T12:19:16;4.30;;;2.07;;
13185;SDS011;6658;53.080;7.428;2022-11-25T12:27:37;6.97;;;2.23;;
13185;SDS011;6658;53.080;7.428;2022-11-25T12:35:06;4.87;;;1.80;;
13185;SDS011;6658;53.080;7.428;2022-11-25T12:40:31;4.80;;;2.23;;
13185;SDS011;6658;53.080;7.428;2022-11-25T12:48:45;4.97;;;1.83;;
13185;SDS011;6658;53.080;7.428;2022-11-25T12:51:17;5.03;;;1.83;;
13185;SDS011;6658;53.080;7.428;2022-11-25T12:56:46;5.27;;;2.07;;
13185;SDS011;6658;53.080;7.428;2022-11-25T12:59:45;6.30;;;2.17;;
13185;SDS011;6658;53.080;7.428;2022-11-25T13:10:28;6.00;;;1.93;;
13185;SDS011;6658;53.080;7.428;2022-11-25T13:13:24;5.90;;;2.70;;
13185;SDS011;6658;53.080;7.428;2022-11-25T13:16:02;4.43;;;2.93;;
13185;SDS011;6658;53.080;7.428;2022-11-25T13:18:31;3.70;;;1.97;;
13185;SDS011;6658;53.080;7.428;2022-11-25T13:21:11;5.67;;;1.60;;
13185;SDS011;6658;53.080;7.428;2022-11-25T13:23:40;5.60;;;2.17;;
13185;SDS011;6658;53.080;7.428;2022-11-25T13:31:59;5.33;;;2.07;;
13185;SDS011;6658;53.080;7.428;2022-11-25T13:34:27;5.40;;;2.20;;
13185;SDS011;6658;53.080;7.428;2022-11-25T13:36:55;6.07;;;1.77;;
13185;SDS011;6658;53.080;7.428;2022-11-25T13:44:49;5.20;;;1.60;;
13185;SDS011;6658;53.080;7.428;2022-11-25T13:50:05;7.53;;;2.07;;
13185;SDS011;6658;53.080;7.428;2022-11-25T13:52:40;6.17;;;1.67;;
13185;SDS011;6658;53.080;7.428;2022-11-25T13:57:42;5.80;;;1.97;;
13185;SDS011;6658;53.080;7.428;2022-11-25T14:02:40;4.83;;;2.13;;
13185;SDS011;6658;53.080;7.428;2022-11-25T14:24:17;5.07;;;1.80;;
13185;SDS011;6658;53.080;7.428;2022-11-25T14:26:51;8.37;;;2.57;;
13185;SDS011;6658;53.080;7.428;2022-11-25T14:31:54;4.50;;;2.10;;
13185;SDS011;6658;53.080;7.428;2022-11-25T14:34:33;6.43;;;2.23;;
13185;SDS011;6658;53.080;7.428;2022-11-25T14:37:09;8.57;;;2.17;;
13185;SDS011;6658;53.080;7.428;2022-11-25T14:39:54;7.30;;;2.10;;
13185;SDS011;6658;53.080;7.428;2022-11-25T14:42:31;4.23;;;1.87;;
13185;SDS011;6658;53.080;7.428;2022-11-25T14:45:01;7.90;;;2.80;;
13185;SDS011;6658;53.080;7.428;2022-11-25T14:47:28;4.10;;;2.03;;
13185;SDS011;6658;53.080;7.428;2022-11-25T14:50:00;7.83;;;2.37;;
13185;SDS011;6658;53.080;7.428;2022-11-25T14:52:31;7.70;;;2.90;;
13185;SDS011;6658;53.080;7.428;2022-11-25T14:55:02;6.50;;;2.70;;
13185;SDS011;6658;53.080;7.428;2022-11-25T14:57:31;6.80;;;2.87;;
13185;SDS011;6658;53.080;7.428;2022-11-25T15:00:05;5.37;;;2.27;;
13185;SDS011;6658;53.080;7.428;2022-11-25T15:02:34;9.37;;;3.00;;
13185;SDS011;6658;53.080;7.428;2022-11-25T15:07:35;5.83;;;2.50;;
13185;SDS011;6658;53.080;7.428;2022-11-25T15:10:06;4.17;;;2.17;;
13185;SDS011;6658;53.080;7.428;2022-11-25T15:12:52;7.60;;;3.07;;
13185;SDS011;6658;53.080;7.428;2022-11-25T15:15:18;9.13;;;2.60;;
13185;SDS011;6658;53.080;7.428;2022-11-25T15:17:43;7.33;;;3.40;;
13185;SDS011;6658;53.080;7.428;2022-11-25T15:20:10;8.27;;;2.37;;
13185;SDS011;6658;53.080;7.428;2022-11-25T15:22:44;7.40;;;2.73;;
13185;SDS011;6658;53.080;7.428;2022-11-25T15:25:14;7.00;;;2.70;;
13185;SDS011;6658;53.080;7.428;2022-11-25T15:27:52;10.30;;;2.43;;
13185;SDS011;6658;53.080;7.428;2022-11-25T15:32:48;5.33;;;2.40;;
13185;SDS011;6658;53.080;7.428;2022-11-25T15:35:16;5.53;;;2.73;;
13185;SDS011;6658;53.080;7.428;2022-11-25T15:37:45;5.00;;;2.77;;
13185;SDS011;6658;53.080;7.428;2022-11-25T15:43:27;7.57;;;2.60;;
13185;SDS011;6658;53.080;7.428;2022-11-25T15:45:55;10.30;;;2.83;;
13185;SDS011;6658;53.080;7.428;2022-11-25T15:48:31;8.10;;;2.70;;
13185;SDS011;6658;53.080;7.428;2022-11-25T15:51:05;8.20;;;3.20;;
13185;SDS011;6658;53.080;7.428;2022-11-25T15:53:40;9.43;;;3.00;;
13185;SDS011;6658;53.080;7.428;2022-11-25T15:56:08;11.30;;;3.00;;
13185;SDS011;6658;53.080;7.428;2022-11-25T15:58:39;9.07;;;2.73;;
13185;SDS011;6658;53.080;7.428;2022-11-25T16:03:42;7.57;;;2.80;;
13185;SDS011;6658;53.080;7.428;2022-11-25T16:06:18;6.60;;;2.60;;
13185;SDS011;6658;53.080;7.428;2022-11-25T16:08:55;8.97;;;2.90;;
13185;SDS011;6658;53.080;7.428;2022-11-25T16:11:24;7.27;;;3.10;;
13185;SDS011;6658;53.080;7.428;2022-11-25T16:13:54;12.57;;;3.70;;
13185;SDS011;6658;53.080;7.428;2022-11-25T16:17:02;9.30;;;3.70;;
13185;SDS011;6658;53.080;7.428;2022-11-25T16:19:32;10.83;;;3.67;;
13185;SDS011;6658;53.080;7.428;2022-11-25T16:22:02;8.80;;;2.80;;
13185;SDS011;6658;53.080;7.428;2022-11-25T16:24:33;7.07;;;3.30;;
13185;SDS011;6658;53.080;7.428;2022-11-25T16:27:21;10.20;;;3.53;;
13185;SDS011;6658;53.080;7.428;2022-11-25T16:29:48;11.63;;;3.80;;
13185;SDS011;6658;53.080;7.428;2022-11-25T16:32:30;8.63;;;3.67;;
13185;SDS011;6658;53.080;7.428;2022-11-25T16:35:15;6.03;;;2.80;;
13185;SDS011;6658;53.080;7.428;2022-11-25T16:37:45;9.13;;;3.33;;
13185;SDS011;6658;53.080;7.428;2022-11-25T16:40:12;8.40;;;3.00;;
13185;SDS011;6658;53.080;7.428;2022-11-25T16:42:38;9.30;;;3.20;;
13185;SDS011;6658;53.080;7.428;2022-11-25T16:45:16;10.70;;;3.37;;
13185;SDS011;6658;53.080;7.428;2022-11-25T16:47:44;6.73;;;3.47;;
13185;SDS011;6658;53.080;7.428;2022-11-25T16:50:13;9.73;;;4.10;;
13185;SDS011;6658;53.080;7.428;2022-11-25T16:52:40;9.47;;;4.73;;
13185;SDS011;6658;53.080;7.428;2022-11-25T16:55:06;12.10;;;4.03;;
13185;SDS011;6658;53.080;7.428;2022-11-25T16:57:33;10.20;;;5.17;;
13185;SDS011;6658;53.080;7.428;2022-11-25T17:00:00;12.97;;;4.40;;
13185;SDS011;6658;53.080;7.428;2022-11-25T17:02:32;10.00;;;4.03;;
13185;SDS011;6658;53.080;7.428;2022-11-25T17:07:41;7.03;;;3.53;;
13185;SDS011;6658;53.080;7.428;2022-11-25T17:10:07;10.83;;;4.47;;
13185;SDS011;6658;53.080;7.428;2022-11-25T17:12:34;11.37;;;4.87;;
13185;SDS011;6658;53.080;7.428;2022-11-25T17:15:01;11.37;;;5.20;;
13185;SDS011;6658;53.080;7.428;2022-11-25T17:17:29;10.47;;;4.77;;
13185;SDS011;6658;53.080;7.428;2022-11-25T17:19:55;10.37;;;4.30;;
13185;SDS011;6658;53.080;7.428;2022-11-25T17:22:22;8.77;;;4.43;;
13185;SDS011;6658;53.080;7.428;2022-11-25T17:24:49;12.73;;;4.73;;
13185;SDS011;6658;53.080;7.428;2022-11-25T17:27:26;11.77;;;4.30;;
13185;SDS011;6658;53.080;7.428;2022-11-25T17:29:53;15.43;;;4.63;;
13185;SDS011;6658;53.080;7.428;2022-11-25T17:32:21;9.93;;;4.87;;
13185;SDS011;6658;53.080;7.428;2022-11-25T17:34:47;15.23;;;6.23;;
13185;SDS011;6658;53.080;7.428;2022-11-25T17:37:14;10.73;;;5.60;;
13185;SDS011;6658;53.080;7.428;2022-11-25T17:39:42;12.77;;;7.57;;
13185;SDS011;6658;53.080;7.428;2022-11-25T17:42:15;11.40;;;6.33;;
13185;SDS011;6658;53.080;7.428;2022-11-25T17:44:42;13.10;;;6.43;;